KONA/ONA METAR and TAF weather

Enter ICAO airport designator
Station Type Date Time Source
KONA METAR 2024/06/16 00:15 UTC NOAA

KONA 160015Z AUTO 13005KT 10SM OVC070 21/15 A2987 RMK AO2


Station Type Date Time Source
KONA Decoded METAR 2024/06/16 00:15 UTC NOAA

Winona, Winona Municipal Airport-Max Conrad Field, MN, United States (KONA) 44-05N 091-42W
Jun 15, 2024 - 08:15 PM EDT / 2024.06.16 0015 UTC
Wind: from the SE (130 degrees) at 6 MPH (5 KT):0
Visibility: 10 mile(s):0
Sky conditions: overcast
Temperature: 69 F (21 C)
Dew Point: 59 F (15 C)
Relative Humidity: 68%
Pressure (altimeter): 29.87 in. Hg (1011 hPa)
ob: KONA 160015Z AUTO 13005KT 10SM OVC070 21/15 A2987 RMK AO2
cycle: 0

Station Type Date Time Source
KONA TAF UTC NOAA

Error!

Example: see airport list